createdAt,value
2019-03-02T00:02:01.316Z,1.10
2019-03-02T00:04:32.302Z,1.50
2019-03-02T00:07:03.149Z,1.65
2019-03-02T00:09:34.648Z,1.90
2019-03-02T00:12:05.493Z,1.70
2019-03-02T00:14:36.427Z,1.50
2019-03-02T00:17:07.356Z,1.12
2019-03-02T00:19:38.688Z,1.50
2019-03-02T00:22:10.850Z,1.60
2019-03-02T00:24:42.336Z,1.60
2019-03-02T00:27:13.137Z,1.20
2019-03-02T00:29:45.856Z,1.10
2019-03-02T00:32:16.505Z,1.50
2019-03-02T00:34:47.439Z,1.90
2019-03-02T00:37:18.228Z,2.30
2019-03-02T00:39:50.597Z,1.60
2019-03-02T00:42:21.820Z,2.10
2019-03-02T00:44:52.684Z,2.57
2019-03-02T00:47:23.508Z,2.70
2019-03-02T00:49:57.144Z,1.95
2019-03-02T00:52:27.450Z,2.10
2019-03-02T00:54:58.607Z,1.50
2019-03-02T00:57:29.604Z,2.08
2019-03-02T01:00:00.468Z,1.80
2019-03-02T01:02:31.308Z,1.40
2019-03-02T01:05:03.035Z,1.52
2019-03-02T01:07:33.996Z,1.55
2019-03-02T01:10:05.442Z,2.00
2019-03-02T01:12:36.323Z,1.47
2019-03-02T01:15:13.329Z,1.42
2019-03-02T01:17:44.497Z,1.87
2019-03-02T01:20:17.084Z,1.70
2019-03-02T01:22:48.282Z,1.40
2019-03-02T01:25:21.197Z,1.50
2019-03-02T01:27:52.018Z,1.72
2019-03-02T01:30:22.948Z,1.37
2019-03-02T01:32:53.824Z,2.10
2019-03-02T01:35:24.698Z,1.20
2019-03-02T01:37:55.599Z,1.42
2019-03-02T01:40:26.596Z,1.32
2019-03-02T01:42:57.545Z,1.15
2019-03-02T01:45:28.986Z,1.40
2019-03-02T01:47:59.996Z,1.50
2019-03-02T01:50:30.980Z,1.50
2019-03-02T01:53:01.901Z,1.62
2019-03-02T01:55:32.789Z,1.50
2019-03-02T01:58:03.758Z,2.10
2019-03-02T02:00:34.944Z,1.77
2019-03-02T02:03:08.587Z,1.40
2019-03-02T02:05:38.713Z,1.10
2019-03-02T02:08:09.789Z,1.70
2019-03-02T02:10:43.355Z,1.70
2019-03-02T02:13:13.327Z,1.30
2019-03-02T02:15:44.270Z,1.85
2019-03-02T02:18:15.233Z,1.50
2019-03-02T02:20:46.803Z,2.10
2019-03-02T02:23:19.196Z,2.10
2019-03-02T02:25:50.063Z,1.60
2019-03-02T02:28:20.991Z,2.40
2019-03-02T02:30:51.854Z,1.20
2019-03-02T02:33:22.742Z,1.50
2019-03-02T02:35:53.567Z,1.50
2019-03-02T02:38:24.548Z,1.50
2019-03-02T02:40:55.441Z,1.47
2019-03-02T02:43:26.362Z,1.50
2019-03-02T02:45:57.208Z,1.60
2019-03-02T02:48:31.118Z,1.40
2019-03-02T02:51:04.338Z,2.05
2019-03-02T02:53:33.381Z,1.42
2019-03-02T02:56:04.307Z,1.30
2019-03-02T02:58:35.173Z,1.03
2019-03-02T03:01:06.113Z,1.60
2019-03-02T03:03:36.938Z,2.02
2019-03-02T03:06:07.776Z,1.50
2019-03-02T03:08:44.028Z,1.62
2019-03-02T03:11:15.909Z,1.70
2019-03-02T03:13:46.757Z,1.35
2019-03-02T03:16:18.033Z,1.57
2019-03-02T03:18:52.520Z,1.35
2019-03-02T03:21:27.307Z,1.30
2019-03-02T03:23:54.294Z,2.00
2019-03-02T03:26:25.254Z,1.80
2019-03-02T03:28:56.139Z,1.80
2019-03-02T03:31:31.063Z,1.77
2019-03-02T03:33:59.642Z,1.77
2019-03-02T03:36:34.054Z,1.90
2019-03-02T03:39:07.254Z,2.10
2019-03-02T03:41:42.751Z,2.00
2019-03-02T03:44:08.158Z,2.90
2019-03-02T03:46:39.055Z,1.60
2019-03-02T03:49:09.876Z,1.75
2019-03-02T03:51:40.610Z,1.60
2019-03-02T03:54:11.505Z,1.42
2019-03-02T03:56:44.213Z,1.22
2019-03-02T03:59:18.988Z,1.70
2019-03-02T04:01:52.186Z,1.80
2019-03-02T04:04:20.044Z,1.80
2019-03-02T04:06:50.967Z,1.65
2019-03-02T04:09:21.739Z,1.30
2019-03-02T04:11:55.634Z,1.80
2019-03-02T04:14:26.465Z,2.00
2019-03-02T04:17:00.529Z,1.60
2019-03-02T04:19:35.372Z,2.52
2019-03-02T04:22:08.173Z,2.20
2019-03-02T04:24:39.924Z,1.40
2019-03-02T04:27:15.364Z,2.02
2019-03-02T04:29:50.305Z,2.10
2019-03-02T04:32:17.054Z,1.92
2019-03-02T04:34:47.942Z,1.62
2019-03-02T04:37:20.265Z,2.40
2019-03-02T04:39:51.410Z,2.20
2019-03-02T04:42:22.422Z,1.67
2019-03-02T04:44:53.297Z,1.82
2019-03-02T04:47:26.292Z,1.75
2019-03-02T04:50:15.838Z,2.40
2019-03-02T04:52:49.896Z,1.55
2019-03-02T04:55:19.257Z,1.60
2019-03-02T04:57:50.274Z,2.40
2019-03-02T05:00:21.181Z,1.90
2019-03-02T05:02:55.208Z,1.90
2019-03-02T05:05:24.944Z,2.25
2019-03-02T05:07:56.001Z,1.70
2019-03-02T05:10:28.671Z,1.90
2019-03-02T05:12:59.666Z,2.00
2019-03-02T05:15:30.584Z,1.50
2019-03-02T06:14:58.663Z,2.30
2019-03-02T06:17:29.794Z,1.47
2019-03-02T06:20:01.364Z,2.00
2019-03-02T06:22:32.020Z,1.47
2019-03-02T06:25:02.544Z,1.87
2019-03-02T06:27:33.059Z,1.15
2019-03-02T06:30:04.818Z,1.80
2019-03-02T06:32:35.766Z,1.40
2019-03-02T06:35:07.742Z,1.70
2019-03-02T06:37:38.199Z,1.85
2019-03-02T06:40:08.854Z,1.95
2019-03-02T06:42:41.875Z,1.90
2019-03-02T06:45:12.108Z,2.30
2019-03-02T06:47:42.589Z,1.82
2019-03-02T06:50:14.089Z,1.60
2019-03-02T06:52:44.674Z,1.75
2019-03-02T06:55:15.183Z,1.90
2019-03-02T06:57:49.958Z,2.00
2019-03-02T07:00:19.536Z,1.32
2019-03-02T07:02:50.201Z,1.60
2019-03-02T07:05:20.670Z,1.85
2019-03-02T07:07:53.705Z,2.40
2019-03-02T07:10:23.695Z,2.27
2019-03-02T07:12:56.010Z,1.43
2019-03-02T07:15:26.567Z,1.80
2019-03-02T07:18:11.692Z,1.98
2019-03-02T07:20:42.398Z,2.00
2019-03-02T07:23:12.876Z,2.00
2019-03-02T07:25:44.318Z,1.43
2019-03-02T07:28:15.146Z,1.80
2019-03-02T07:30:45.642Z,1.50
2019-03-02T07:33:16.196Z,2.30
2019-03-02T07:35:46.696Z,1.80
2019-03-02T07:38:20.276Z,2.02
2019-03-02T07:40:49.590Z,1.60
2019-03-02T07:43:20.154Z,1.60
2019-03-02T07:45:50.676Z,1.63
2019-03-02T07:48:21.203Z,2.30
2019-03-02T07:50:51.710Z,1.67
2019-03-02T07:53:24.998Z,1.50
2019-03-02T07:55:57.366Z,1.50
2019-03-02T07:58:26.803Z,2.00
2019-03-02T08:00:57.370Z,1.87
2019-03-02T08:03:27.981Z,2.10
2019-03-02T08:05:58.633Z,1.90
2019-03-02T08:08:29.388Z,1.87
2019-03-02T08:10:59.904Z,1.90
2019-03-02T08:13:32.722Z,1.77
2019-03-02T08:16:03.341Z,2.12
2019-03-02T08:18:33.965Z,1.40
2019-03-02T08:21:04.499Z,1.60
2019-03-02T08:23:35.057Z,2.25
2019-03-02T08:26:05.651Z,2.10
2019-03-02T08:28:36.187Z,2.60
2019-03-02T08:31:09.002Z,1.52
2019-03-02T08:33:45.605Z,1.70
2019-03-02T08:36:13.098Z,2.20
2019-03-02T08:38:43.344Z,1.52
2019-03-02T08:41:13.823Z,2.17
2019-03-02T08:43:44.338Z,1.80
2019-03-02T08:46:14.866Z,2.47
2019-03-02T08:48:45.431Z,1.82
2019-03-02T08:51:15.908Z,2.20
2019-03-02T08:53:46.389Z,2.10
2019-03-02T08:56:16.909Z,1.70
2019-03-02T08:58:47.349Z,2.10
2019-03-02T09:01:18.629Z,1.80
2019-03-02T09:03:50.206Z,1.92
2019-03-02T09:06:20.738Z,2.02
2019-03-02T09:08:51.326Z,2.10
2019-03-02T09:11:21.835Z,1.80
2019-03-02T09:13:52.337Z,1.72
2019-03-02T09:16:22.952Z,2.30
2019-03-02T09:18:53.491Z,1.60
2019-03-02T09:21:24.010Z,1.40
2019-03-02T09:24:01.016Z,1.72
2019-03-02T09:26:31.578Z,1.60
2019-03-02T09:29:02.173Z,1.50
2019-03-02T09:31:35.052Z,1.50
2019-03-02T09:34:05.144Z,1.80
2019-03-02T09:36:35.675Z,1.67
2019-03-02T09:39:09.571Z,2.08
2019-03-02T09:41:40.259Z,1.40
2019-03-02T09:44:10.714Z,2.00
2019-03-02T09:46:41.292Z,1.65
2019-03-02T09:49:11.931Z,1.30
2019-03-02T09:51:44.766Z,1.52
2019-03-02T09:54:17.488Z,1.20
2019-03-02T09:56:48.172Z,1.00
2019-03-02T09:59:18.874Z,0.80
2019-03-02T10:01:49.535Z,1.17
2019-03-02T10:04:20.148Z,1.00
2019-03-02T10:06:50.835Z,0.90
2019-03-02T10:09:24.937Z,0.80
2019-03-02T10:11:54.890Z,1.10
2019-03-02T10:14:27.348Z,1.00
2019-03-02T10:16:58.160Z,1.00
2019-03-02T10:19:29.681Z,1.10
2019-03-02T10:22:00.532Z,1.40
2019-03-02T10:24:31.084Z,1.10
2019-03-02T10:27:01.651Z,1.17
2019-03-02T10:29:32.586Z,1.00
2019-03-02T10:32:04.484Z,0.93
2019-03-02T10:34:38.482Z,1.10
2019-03-02T10:37:08.671Z,1.40
2019-03-02T10:39:39.371Z,1.20
2019-03-02T10:42:09.852Z,0.98
2019-03-02T10:44:40.414Z,1.10
2019-03-02T10:47:10.944Z,0.90
2019-03-02T10:49:44.694Z,1.00
2019-03-02T10:52:14.467Z,1.20
2019-03-02T10:54:45.547Z,1.20
2019-03-02T10:57:16.128Z,1.22
2019-03-02T10:59:47.918Z,0.93
2019-03-02T11:02:22.072Z,1.15
2019-03-02T11:05:00.963Z,1.10
2019-03-02T11:07:48.928Z,1.20
2019-03-02T11:10:43.430Z,1.40
2019-03-02T11:13:22.432Z,1.20
2019-03-02T11:16:10.484Z,1.32
2019-03-02T11:19:04.252Z,1.40
2019-03-02T11:21:52.606Z,1.10
2019-03-02T11:24:51.109Z,1.60
2019-03-02T11:27:40.578Z,1.40
2019-03-02T11:30:28.549Z,1.20
2019-03-02T11:33:27.605Z,1.30
2019-03-02T11:36:16.031Z,1.30
2019-03-02T11:39:05.550Z,1.10
2019-03-02T11:41:46.740Z,1.40
2019-03-02T11:44:34.895Z,1.00
2019-03-02T11:47:33.062Z,1.30
2019-03-02T11:50:27.662Z,1.40
2019-03-02T11:53:07.150Z,1.17
2019-03-02T11:55:58.713Z,1.40
2019-03-02T11:58:48.398Z,1.80
2019-03-02T12:01:46.947Z,1.30
2019-03-02T12:04:35.377Z,1.30
2019-03-02T12:07:27.702Z,1.70
2019-03-02T12:10:07.686Z,1.50
2019-03-02T12:12:58.947Z,1.22
2019-03-02T12:16:01.624Z,1.37
2019-03-02T12:18:58.824Z,1.50
2019-03-02T12:22:01.025Z,1.20
2019-03-02T12:24:59.816Z,1.30
2019-03-02T12:27:58.941Z,1.70
2019-03-02T12:30:37.808Z,1.60
2019-03-02T12:33:22.266Z,1.30
2019-03-02T12:36:12.526Z,1.20
2019-03-02T12:38:50.064Z,1.37
2019-03-02T12:41:38.249Z,1.20
2019-03-02T12:44:33.722Z,1.15
2019-03-02T12:47:41.318Z,1.20
2019-03-02T12:50:39.717Z,0.90
2019-03-02T12:53:37.666Z,0.90
2019-03-02T12:56:29.197Z,1.00
2019-03-02T12:59:18.872Z,1.03
2019-03-02T13:02:01.142Z,1.00
2019-03-02T13:04:52.027Z,0.80
2019-03-02T13:07:46.914Z,1.37
2019-03-02T13:10:37.516Z,0.90
2019-03-02T13:13:45.334Z,1.10
2019-03-02T13:16:38.189Z,1.52
2019-03-02T13:19:30.484Z,2.20
2019-03-02T13:22:16.455Z,1.30
2019-03-02T13:25:10.400Z,1.00
2019-03-02T13:27:48.626Z,1.00
2019-03-02T13:30:38.199Z,1.20
2019-03-02T13:33:30.136Z,0.90
2019-03-02T13:36:15.123Z,0.90
2019-03-02T13:39:06.472Z,1.30
2019-03-02T13:41:46.421Z,0.90
2019-03-02T13:44:45.350Z,1.10
2019-03-02T13:47:33.448Z,1.37
2019-03-02T13:50:21.511Z,1.45
2019-03-02T13:53:15.801Z,1.70
2019-03-02T13:56:14.692Z,1.50
2019-03-02T13:58:56.802Z,2.02
2019-03-02T14:01:34.000Z,1.50
2019-03-02T14:04:35.537Z,1.40
2019-03-02T14:07:22.331Z,2.10
2019-03-02T14:10:15.746Z,2.20
2019-03-02T14:13:14.477Z,1.90
2019-03-02T14:15:51.186Z,2.10
2019-03-02T14:18:29.702Z,2.00
2019-03-02T14:21:22.679Z,2.45
2019-03-02T14:24:10.229Z,2.30
2019-03-02T14:26:52.295Z,2.40
2019-03-02T14:29:43.013Z,2.10
2019-03-02T14:32:32.391Z,2.27
2019-03-02T14:35:11.401Z,2.22
2019-03-02T14:37:53.307Z,1.80
2019-03-02T14:40:52.669Z,2.08
2019-03-02T14:43:39.528Z,2.20
2019-03-02T14:46:41.418Z,2.25
2019-03-02T14:49:37.035Z,1.70
2019-03-02T14:52:28.959Z,2.00
2019-03-02T14:55:15.834Z,2.10
2019-03-02T14:58:07.785Z,1.90
2019-03-02T15:00:55.270Z,2.27
2019-03-02T15:03:43.820Z,2.20
2019-03-02T15:06:28.199Z,1.90
2019-03-02T15:09:25.314Z,2.30
2019-03-02T15:12:17.800Z,2.75
2019-03-02T15:15:05.218Z,2.33
2019-03-02T15:17:57.638Z,2.20
2019-03-02T15:20:56.080Z,1.90
2019-03-02T15:23:48.615Z,1.77
2019-03-02T15:26:28.623Z,1.75
2019-03-02T15:29:13.712Z,1.70
2019-03-02T15:31:51.752Z,2.10
2019-03-02T15:34:34.534Z,1.72
2019-03-02T15:37:24.318Z,2.70
2019-03-02T15:40:08.232Z,2.20
2019-03-02T15:42:58.552Z,2.00
2019-03-02T15:45:48.487Z,2.10
2019-03-02T15:48:36.907Z,2.60
2019-03-02T15:51:20.919Z,2.08
2019-03-02T15:54:14.939Z,2.27
2019-03-02T15:57:02.500Z,2.10
2019-03-02T15:59:55.138Z,1.75
2019-03-02T16:02:44.368Z,2.70
2019-03-02T16:05:23.074Z,2.40
2019-03-02T16:08:14.412Z,2.60
2019-03-02T16:11:02.129Z,2.90
2019-03-02T16:13:56.152Z,2.20
2019-03-02T16:16:45.668Z,2.85
2019-03-02T16:19:34.195Z,3.37
2019-03-02T16:22:23.828Z,3.00
2019-03-02T16:25:06.081Z,2.40
2019-03-02T16:27:47.294Z,2.92
2019-03-02T16:30:35.817Z,3.10
2019-03-02T16:33:32.472Z,3.05
2019-03-02T16:36:20.480Z,3.10
2019-03-02T16:39:10.441Z,3.83
2019-03-02T16:41:59.221Z,4.00
2019-03-02T16:44:56.234Z,3.83
2019-03-02T16:47:58.131Z,3.60
2019-03-02T16:50:59.603Z,3.80
2019-03-02T16:53:49.136Z,3.67
2019-03-02T16:56:45.861Z,4.97
2019-03-02T16:59:32.206Z,3.70
2019-03-02T17:02:19.638Z,4.70
2019-03-02T17:04:57.435Z,4.00
2019-03-02T17:07:46.440Z,4.87
2019-03-02T17:10:43.253Z,4.90
2019-03-02T17:13:33.585Z,5.60
2019-03-02T17:16:23.463Z,5.70
2019-03-02T17:19:12.974Z,6.10
2019-03-02T17:21:56.170Z,5.47
2019-03-02T17:24:47.382Z,6.22
2019-03-02T17:27:43.195Z,5.95
2019-03-02T17:30:42.206Z,6.05
2019-03-02T17:33:46.802Z,5.55
2019-03-02T17:36:41.726Z,5.25
2019-03-02T17:39:40.115Z,5.17
2019-03-02T17:42:28.146Z,5.70
2019-03-02T17:45:06.735Z,5.75
2019-03-02T17:47:49.577Z,6.30
2019-03-02T17:50:53.011Z,5.40
2019-03-02T17:53:46.324Z,5.20
2019-03-02T17:56:42.488Z,5.58
2019-03-02T17:59:30.793Z,5.90
2019-03-02T18:02:23.069Z,5.33
2019-03-02T18:05:15.483Z,6.53
2019-03-02T18:08:04.942Z,6.03
2019-03-02T18:10:54.591Z,5.95
2019-03-02T18:13:43.261Z,5.15
2019-03-02T18:16:41.139Z,6.30
2019-03-02T18:19:10.734Z,5.90
2019-03-02T18:21:41.370Z,6.05
2019-03-02T18:24:11.955Z,6.15
2019-03-02T18:26:42.621Z,6.40
2019-03-02T18:29:13.828Z,5.87
2019-03-02T18:31:44.477Z,6.60
2019-03-02T18:34:20.045Z,6.45
2019-03-02T18:36:53.108Z,6.78
2019-03-02T18:39:25.567Z,7.00
2019-03-02T18:41:54.898Z,7.00
2019-03-02T18:44:27.726Z,6.80
2019-03-02T18:46:57.907Z,7.30
2019-03-02T18:49:51.479Z,6.72
2019-03-02T18:52:28.516Z,8.08
2019-03-02T18:54:59.105Z,7.40
2019-03-02T18:57:29.693Z,7.62
2019-03-02T19:00:00.335Z,8.50
2019-03-02T19:02:30.865Z,7.62
2019-03-02T19:05:01.436Z,7.45
2019-03-02T19:07:31.973Z,9.23
2019-03-02T19:10:04.170Z,8.50
2019-03-02T19:12:34.821Z,8.10
2019-03-02T19:15:05.601Z,8.75
2019-03-02T19:17:44.231Z,9.83
2019-03-02T19:20:14.964Z,9.80
2019-03-02T19:22:45.570Z,10.23
2019-03-02T19:25:16.423Z,11.05
2019-03-02T19:27:47.023Z,10.10
2019-03-02T19:30:19.629Z,9.90
2019-03-02T19:32:50.223Z,11.78
2019-03-02T19:35:20.784Z,11.50
2019-03-02T19:37:51.379Z,12.00
2019-03-02T19:40:25.551Z,11.37
2019-03-02T19:42:56.146Z,11.88
2019-03-02T19:45:26.668Z,13.00
2019-03-02T19:47:57.274Z,13.23
2019-03-02T19:50:27.778Z,13.13
2019-03-02T19:52:58.364Z,13.40
2019-03-02T19:55:28.899Z,13.48
2019-03-02T19:57:59.430Z,14.98
2019-03-02T20:00:30.459Z,14.55
2019-03-02T20:03:01.089Z,14.58
2019-03-02T20:05:31.635Z,14.53
2019-03-02T20:08:03.030Z,14.15
2019-03-02T20:10:33.607Z,15.53
2019-03-02T20:13:04.119Z,15.05
2019-03-02T20:15:34.689Z,16.40
2019-03-02T20:18:05.206Z,15.30
2019-03-02T20:20:35.859Z,16.20
2019-03-02T20:23:06.373Z,16.17
2019-03-02T20:25:36.832Z,17.27
2019-03-02T20:28:07.427Z,16.42
2019-03-02T20:30:37.979Z,18.07
2019-03-02T20:33:08.432Z,16.75
2019-03-02T20:35:39.032Z,17.52
2019-03-02T20:38:09.626Z,17.77
2019-03-02T20:40:40.215Z,17.42
2019-03-02T20:43:10.695Z,17.45
2019-03-02T20:45:41.340Z,16.42
2019-03-02T20:48:11.875Z,18.30
2019-03-02T20:50:43.316Z,16.97
2019-03-02T20:53:13.888Z,16.55
2019-03-02T20:55:44.487Z,19.12
2019-03-02T20:58:15.003Z,17.57
2019-03-02T21:00:45.800Z,17.52
2019-03-02T21:03:16.383Z,17.37
2019-03-02T21:05:47.000Z,17.82
2019-03-02T21:08:17.486Z,17.98
2019-03-02T21:10:48.089Z,16.65
2019-03-02T21:13:18.652Z,17.95
2019-03-02T21:15:49.346Z,17.07
2019-03-02T21:18:19.989Z,16.90
2019-03-02T21:20:50.571Z,17.15
2019-03-02T21:23:21.237Z,18.00
2019-03-02T21:25:51.768Z,18.32
2019-03-02T21:28:22.524Z,17.10
2019-03-02T21:30:53.160Z,18.57
2019-03-02T21:33:23.677Z,17.42
2019-03-02T21:35:54.116Z,18.20
2019-03-02T21:38:24.633Z,17.98
2019-03-02T21:40:55.226Z,17.42
2019-03-02T21:43:25.707Z,16.90
2019-03-02T21:45:56.277Z,18.25
2019-03-02T21:48:26.977Z,17.02
2019-03-02T21:50:58.153Z,18.62
2019-03-02T21:53:28.601Z,17.90
2019-03-02T21:55:59.172Z,18.10
2019-03-02T21:58:29.669Z,18.25
2019-03-02T22:01:00.270Z,17.98
2019-03-02T22:03:30.737Z,20.05
2019-03-02T22:06:01.286Z,17.15
2019-03-02T22:08:31.816Z,18.77
2019-03-02T22:11:06.880Z,20.27
2019-03-02T22:13:37.394Z,18.90
2019-03-02T22:16:07.940Z,18.77
2019-03-02T22:18:38.587Z,18.80
2019-03-02T22:21:09.136Z,20.25
2019-03-02T22:23:39.667Z,18.60
2019-03-02T22:26:10.177Z,19.20
2019-03-02T22:28:40.751Z,19.40
2019-03-02T22:31:11.255Z,18.25
2019-03-02T22:33:41.860Z,19.05
2019-03-02T22:36:12.410Z,19.37
2019-03-02T22:38:43.063Z,18.73
2019-03-02T22:41:13.582Z,18.80
2019-03-02T22:43:44.130Z,18.32
2019-03-02T22:46:14.709Z,18.70
2019-03-02T22:48:45.257Z,18.70
2019-03-02T22:51:15.781Z,18.60
2019-03-02T22:53:46.372Z,18.87
2019-03-02T22:56:16.873Z,19.20
2019-03-02T22:58:46.346Z,18.87
2019-03-02T23:02:22.201Z,17.17
2019-03-02T23:04:52.767Z,20.35
2019-03-02T23:07:23.251Z,18.92
2019-03-02T23:09:53.814Z,19.13
2019-03-02T23:12:24.333Z,18.95
2019-03-02T23:14:54.818Z,18.30
2019-03-02T23:17:25.462Z,18.42
2019-03-02T23:19:57.671Z,19.30
2019-03-02T23:22:28.242Z,18.67
2019-03-02T23:24:58.885Z,18.45
2019-03-02T23:27:29.431Z,20.20
2019-03-02T23:29:59.944Z,19.60
2019-03-02T23:32:30.538Z,19.45
2019-03-02T23:35:01.040Z,19.67
2019-03-02T23:37:31.579Z,20.35
2019-03-02T23:40:02.162Z,19.98
2019-03-02T23:42:32.707Z,19.55
2019-03-02T23:45:03.272Z,20.70
2019-03-02T23:47:33.847Z,20.70
2019-03-02T23:50:04.670Z,20.80
2019-03-02T23:52:35.271Z,20.45
2019-03-02T23:55:05.895Z,21.17
2019-03-02T23:57:36.437Z,20.08
